createdAt,value
2022-11-07T00:00:34.121Z,45.16
2022-11-07T00:01:55.791Z,36.31
2022-11-07T00:03:17.536Z,35.10
2022-11-07T00:04:38.951Z,47.43
2022-11-07T00:06:00.062Z,44.39
2022-11-07T00:07:21.552Z,42.76
2022-11-07T00:08:42.903Z,37.41
2022-11-07T00:10:05.102Z,39.10
2022-11-07T00:11:26.203Z,31.88
2022-11-07T00:12:47.818Z,33.81
2022-11-07T00:14:13.363Z,30.96
2022-11-07T00:15:34.735Z,30.84
2022-11-07T00:16:56.229Z,27.85
2022-11-07T00:18:17.492Z,29.09
2022-11-07T00:19:38.752Z,35.96
2022-11-07T00:22:15.803Z,29.78
2022-11-07T00:23:39.529Z,30.44
2022-11-07T00:25:00.598Z,28.13
2022-11-07T00:26:22.379Z,30.12
2022-11-07T00:27:43.552Z,31.54
2022-11-07T00:29:05.069Z,31.11
2022-11-07T00:30:26.535Z,33.84
2022-11-07T00:31:47.806Z,30.97
2022-11-07T00:33:09.288Z,27.47
2022-11-07T00:34:32.319Z,31.53
2022-11-07T00:35:53.798Z,37.59
2022-11-07T00:37:14.877Z,33.39
2022-11-07T00:38:35.952Z,32.55
2022-11-07T00:39:56.994Z,33.84
2022-11-07T00:41:18.300Z,27.68
2022-11-07T00:42:39.519Z,32.06
2022-11-07T00:44:00.990Z,29.52
2022-11-07T00:45:22.058Z,25.53
2022-11-07T00:46:43.360Z,29.42
2022-11-07T00:48:05.447Z,35.49
2022-11-07T00:49:27.052Z,37.19
2022-11-07T00:50:48.722Z,30.22
2022-11-07T00:52:09.873Z,34.10
2022-11-07T00:53:30.938Z,29.49
2022-11-07T00:54:51.976Z,32.32
2022-11-07T00:56:15.684Z,29.84
2022-11-07T00:57:36.751Z,29.39
2022-11-07T00:58:58.465Z,30.84
2022-11-07T01:00:19.909Z,29.89
2022-11-07T01:01:41.168Z,31.34
2022-11-07T01:03:02.911Z,26.79
2022-11-07T01:04:24.005Z,27.24
2022-11-07T01:06:00.261Z,26.42
2022-11-07T01:07:21.349Z,24.37
2022-11-07T01:08:42.995Z,24.91
2022-11-07T01:10:05.545Z,29.02
2022-11-07T01:11:27.693Z,19.12
2022-11-07T01:12:48.952Z,30.58
2022-11-07T01:14:10.306Z,28.38
2022-11-07T01:15:31.737Z,27.90
2022-11-07T01:16:53.025Z,23.07
2022-11-07T01:18:14.109Z,25.93
2022-11-07T01:19:35.509Z,26.41
2022-11-07T01:20:56.598Z,28.29
2022-11-07T01:22:18.068Z,25.28
2022-11-07T01:23:39.512Z,24.55
2022-11-07T01:25:00.936Z,25.62
2022-11-07T01:26:21.959Z,25.46
2022-11-07T01:27:43.510Z,21.47
2022-11-07T01:29:05.161Z,23.14
2022-11-07T01:30:26.487Z,22.10
2022-11-07T01:31:47.830Z,22.77
2022-11-07T01:33:09.209Z,25.56
2022-11-07T01:34:30.622Z,24.27
2022-11-07T01:35:51.638Z,24.19
2022-11-07T01:37:13.031Z,25.47
2022-11-07T01:38:41.783Z,25.13
2022-11-07T01:40:03.390Z,22.35
2022-11-07T01:41:26.861Z,19.99
2022-11-07T01:42:48.170Z,16.22
2022-11-07T01:44:13.443Z,18.84
2022-11-07T01:45:34.771Z,22.33
2022-11-07T01:46:56.770Z,20.56
2022-11-07T01:48:18.280Z,20.94
2022-11-07T01:49:40.493Z,20.37
2022-11-07T01:51:01.584Z,18.92
2022-11-07T01:53:36.034Z,21.46
2022-11-07T01:55:08.554Z,19.53
2022-11-07T01:56:30.728Z,25.03
2022-11-07T01:57:55.328Z,22.84
2022-11-07T01:59:18.859Z,21.60
2022-11-07T02:00:39.850Z,19.89
2022-11-07T02:02:01.597Z,18.26
2022-11-07T02:03:23.064Z,20.91
2022-11-07T02:04:44.156Z,18.06
2022-11-07T02:06:08.612Z,17.63
2022-11-07T02:07:30.207Z,15.98
2022-11-07T02:08:51.533Z,15.64
2022-11-07T02:10:12.998Z,16.11
2022-11-07T02:11:34.130Z,20.19
2022-11-07T02:12:57.003Z,14.89
2022-11-07T02:14:18.714Z,16.13
2022-11-07T02:15:39.774Z,16.20
2022-11-07T02:17:01.325Z,14.93
2022-11-07T02:18:22.724Z,16.67
2022-11-07T02:19:46.349Z,16.81
2022-11-07T02:22:43.754Z,12.90
2022-11-07T02:24:11.681Z,18.24
2022-11-07T02:25:33.018Z,16.64
2022-11-07T02:26:55.473Z,17.12
2022-11-07T02:28:16.891Z,19.64
2022-11-07T02:29:38.452Z,18.95
2022-11-07T02:31:00.119Z,19.63
2022-11-07T02:32:21.468Z,18.28
2022-11-07T02:33:43.096Z,23.64
2022-11-07T02:35:06.912Z,18.44
2022-11-07T02:36:28.249Z,20.11
2022-11-07T02:37:49.277Z,20.09
2022-11-07T02:39:11.028Z,22.82
2022-11-07T02:40:32.457Z,21.09
2022-11-07T02:41:54.086Z,19.30
2022-11-07T02:43:16.038Z,20.31
2022-11-07T02:44:37.776Z,17.79
2022-11-07T02:46:00.409Z,21.70
2022-11-07T02:47:21.736Z,23.72
2022-11-07T02:48:45.830Z,18.68
2022-11-07T02:50:08.828Z,20.04
2022-11-07T02:51:30.066Z,19.30
2022-11-07T02:52:51.156Z,22.75
2022-11-07T02:54:12.565Z,22.17
2022-11-07T02:55:34.039Z,20.49
2022-11-07T02:56:55.269Z,23.92
2022-11-07T02:58:16.692Z,20.99
2022-11-07T02:59:37.753Z,20.29
2022-11-07T03:00:59.356Z,22.95
2022-11-07T03:02:20.974Z,23.35
2022-11-07T03:03:45.027Z,20.52
2022-11-07T03:05:06.616Z,22.24
2022-11-07T03:06:27.638Z,20.76
2022-11-07T03:07:49.095Z,22.86
2022-11-07T03:09:10.559Z,20.66
2022-11-07T03:10:31.986Z,21.09
2022-11-07T03:11:53.484Z,28.19
2022-11-07T03:13:14.686Z,21.63
2022-11-07T03:14:36.030Z,22.69
2022-11-07T03:15:57.629Z,23.93
2022-11-07T03:17:25.253Z,20.63
2022-11-07T03:18:46.703Z,22.70
2022-11-07T03:20:08.691Z,20.66
2022-11-07T03:21:29.640Z,22.07
2022-11-07T03:22:50.676Z,25.44
2022-11-07T03:24:11.997Z,24.44
2022-11-07T03:25:33.263Z,24.21
2022-11-07T03:26:54.180Z,26.48
2022-11-07T03:28:15.386Z,25.26
2022-11-07T03:29:36.340Z,21.77
2022-11-07T03:32:12.343Z,25.42
2022-11-07T03:33:34.005Z,21.98
2022-11-07T03:34:55.620Z,19.66
2022-11-07T03:36:17.458Z,22.96
2022-11-07T03:37:38.832Z,23.44
2022-11-07T03:39:00.432Z,21.02
2022-11-07T03:40:22.127Z,25.76
2022-11-07T03:41:43.499Z,20.76
2022-11-07T03:43:04.517Z,22.26
2022-11-07T03:44:26.091Z,24.69
2022-11-07T03:45:47.158Z,29.14
2022-11-07T03:47:08.757Z,25.39
2022-11-07T03:48:29.769Z,21.68
2022-11-07T03:49:51.535Z,21.56
2022-11-07T03:51:13.026Z,22.71
2022-11-07T03:52:34.082Z,22.83
2022-11-07T03:53:55.175Z,20.65
2022-11-07T03:55:16.441Z,24.54
2022-11-07T03:56:37.781Z,28.48
2022-11-07T03:57:59.126Z,23.54
2022-11-07T03:59:20.277Z,22.28
2022-11-07T04:00:41.813Z,24.22
2022-11-07T04:02:03.301Z,26.76
2022-11-07T04:03:24.697Z,26.41
2022-11-07T04:04:46.245Z,43.81
2022-11-07T04:06:08.669Z,32.58
2022-11-07T04:07:29.748Z,32.15
2022-11-07T04:08:51.240Z,29.36
2022-11-07T04:10:12.464Z,26.69
2022-11-07T04:11:33.849Z,30.29
2022-11-07T04:12:54.953Z,25.50
2022-11-07T04:14:16.434Z,23.97
2022-11-07T04:15:38.972Z,22.83
2022-11-07T04:17:00.287Z,17.28
2022-11-07T04:18:21.559Z,20.21
2022-11-07T04:19:42.577Z,21.82
2022-11-07T04:21:04.266Z,19.47
2022-11-07T04:22:25.748Z,23.52
2022-11-07T04:23:46.779Z,21.55
2022-11-07T04:25:09.126Z,23.40
2022-11-07T04:26:30.423Z,27.63
2022-11-07T04:27:51.520Z,35.14
2022-11-07T04:29:12.451Z,50.02
2022-11-07T04:30:33.497Z,30.77
2022-11-07T04:31:54.499Z,33.12
2022-11-07T04:33:16.402Z,43.65
2022-11-07T04:34:38.124Z,79.74
2022-11-07T04:35:59.046Z,59.23
2022-11-07T04:37:19.979Z,26.98
2022-11-07T04:38:41.573Z,30.05
2022-11-07T04:40:03.436Z,26.96
2022-11-07T04:41:24.691Z,35.00
2022-11-07T04:42:46.147Z,31.92
2022-11-07T04:44:07.105Z,27.48
2022-11-07T04:45:28.123Z,21.02
2022-11-07T04:46:49.487Z,22.70
2022-11-07T04:48:10.701Z,21.94
2022-11-07T04:49:32.046Z,24.58
2022-11-07T04:50:53.162Z,26.96
2022-11-07T04:52:14.310Z,28.91
2022-11-07T04:53:35.931Z,23.66
2022-11-07T04:54:57.208Z,21.97
2022-11-07T04:56:18.544Z,21.64
2022-11-07T04:57:39.834Z,27.15
2022-11-07T04:59:01.421Z,24.17
2022-11-07T05:00:23.239Z,23.07
2022-11-07T05:01:44.685Z,22.87
2022-11-07T05:03:06.112Z,22.03
2022-11-07T05:04:27.592Z,21.30
2022-11-07T05:05:49.203Z,23.07
2022-11-07T05:07:10.911Z,21.94
2022-11-07T05:08:32.411Z,19.86
2022-11-07T05:09:53.593Z,19.87
2022-11-07T05:11:16.064Z,23.49
2022-11-07T05:12:37.574Z,22.17
2022-11-07T05:13:58.775Z,29.27
2022-11-07T05:15:20.187Z,23.59
2022-11-07T05:16:41.916Z,20.18
2022-11-07T05:18:03.542Z,23.06
2022-11-07T05:19:25.061Z,23.01
2022-11-07T05:20:46.215Z,22.57
2022-11-07T05:22:07.761Z,20.50
2022-11-07T05:23:29.107Z,22.12
2022-11-07T05:24:50.717Z,19.44
2022-11-07T05:26:12.472Z,32.11
2022-11-07T05:27:33.904Z,22.78
2022-11-07T05:28:55.078Z,31.29
2022-11-07T05:30:16.580Z,22.22
2022-11-07T05:31:37.872Z,31.51
2022-11-07T05:32:59.469Z,23.33
2022-11-07T05:34:20.969Z,64.57
2022-11-07T05:35:44.528Z,39.25
2022-11-07T05:37:09.273Z,21.15
2022-11-07T05:38:30.375Z,25.79
2022-11-07T05:39:55.038Z,25.31
2022-11-07T05:42:37.311Z,29.57
2022-11-07T05:43:58.516Z,15.87
2022-11-07T05:45:19.858Z,16.49
2022-11-07T05:46:41.651Z,31.77
2022-11-07T05:48:05.796Z,25.75
2022-11-07T05:49:27.054Z,16.91
2022-11-07T05:50:49.756Z,21.23
2022-11-07T05:52:11.228Z,31.82
2022-11-07T05:53:32.973Z,29.86
2022-11-07T05:54:54.247Z,38.32
2022-11-07T05:56:15.482Z,18.91
2022-11-07T05:57:36.693Z,17.98
2022-11-07T05:58:58.400Z,35.93
2022-11-07T06:00:19.877Z,31.47
2022-11-07T06:01:42.525Z,28.32
2022-11-07T06:03:03.915Z,53.64
2022-11-07T06:04:25.179Z,68.94
2022-11-07T06:05:46.716Z,88.17
2022-11-07T06:07:08.102Z,88.51
2022-11-07T06:08:29.481Z,27.22
2022-11-07T06:09:50.895Z,17.98
2022-11-07T06:11:13.812Z,17.83
2022-11-07T06:12:35.038Z,15.30
2022-11-07T06:13:56.086Z,13.91
2022-11-07T06:15:17.758Z,15.79
2022-11-07T06:16:39.522Z,13.58
2022-11-07T06:19:15.373Z,15.03
2022-11-07T06:20:37.080Z,14.06
2022-11-07T06:22:00.112Z,16.55
2022-11-07T06:24:42.758Z,15.41
2022-11-07T06:26:06.067Z,13.45
2022-11-07T06:28:48.882Z,15.12
2022-11-07T06:30:11.559Z,13.13
2022-11-07T06:31:33.387Z,16.39
2022-11-07T06:32:54.855Z,12.89
2022-11-07T06:34:15.994Z,13.93
2022-11-07T06:35:37.026Z,16.93
2022-11-07T06:37:02.811Z,19.14
2022-11-07T06:38:21.582Z,18.52
2022-11-07T06:39:43.056Z,17.26
2022-11-07T06:42:20.744Z,13.98
2022-11-07T06:43:42.942Z,16.36
2022-11-07T06:45:05.815Z,15.44
2022-11-07T06:46:27.438Z,17.76
2022-11-07T06:47:48.989Z,19.30
2022-11-07T06:49:12.515Z,15.11
2022-11-07T06:50:34.481Z,16.50
2022-11-07T06:51:55.947Z,16.76
2022-11-07T06:53:17.540Z,16.35
2022-11-07T06:54:39.176Z,17.68
2022-11-07T06:56:05.008Z,13.43
2022-11-07T06:57:26.811Z,14.49
2022-11-07T06:58:48.963Z,16.34
2022-11-07T07:00:12.329Z,15.57
2022-11-07T07:01:34.020Z,14.63
2022-11-07T07:02:59.341Z,13.92
2022-11-07T07:04:18.818Z,14.98
2022-11-07T07:05:40.041Z,15.64
2022-11-07T07:07:01.519Z,15.44
2022-11-07T07:08:23.597Z,16.58
2022-11-07T07:09:44.767Z,14.96
2022-11-07T07:11:07.945Z,16.84
2022-11-07T07:12:30.425Z,16.81
2022-11-07T07:13:51.752Z,15.81
2022-11-07T07:15:12.807Z,16.04
2022-11-07T07:16:35.548Z,16.83
2022-11-07T07:18:01.340Z,14.58
2022-11-07T07:19:22.455Z,17.41
2022-11-07T07:20:44.024Z,17.20
2022-11-07T07:22:05.336Z,22.88
2022-11-07T07:23:26.372Z,15.90
2022-11-07T07:24:48.802Z,18.87
2022-11-07T07:26:14.812Z,14.27
2022-11-07T07:27:35.932Z,14.26
2022-11-07T07:30:11.465Z,17.12
2022-11-07T07:31:32.663Z,18.50
2022-11-07T07:32:53.981Z,23.83
2022-11-07T07:34:15.374Z,18.35
2022-11-07T07:35:36.336Z,17.53
2022-11-07T07:36:57.437Z,15.37
2022-11-07T07:38:19.200Z,22.00
2022-11-07T07:39:41.396Z,17.55
2022-11-07T07:41:03.555Z,19.59
2022-11-07T07:42:24.893Z,19.54
2022-11-07T07:43:46.577Z,18.35
2022-11-07T07:46:27.865Z,17.16
2022-11-07T07:47:49.067Z,15.92
2022-11-07T07:49:10.844Z,16.54
2022-11-07T07:50:33.278Z,17.97
2022-11-07T07:51:55.358Z,20.04
2022-11-07T07:53:21.390Z,26.33
2022-11-07T07:54:42.502Z,22.31
2022-11-07T07:56:04.019Z,16.72
2022-11-07T07:57:27.870Z,22.65
2022-11-07T07:58:51.405Z,13.99
2022-11-07T08:00:14.241Z,18.07
2022-11-07T08:01:37.476Z,17.59
2022-11-07T08:03:02.867Z,16.79
2022-11-07T08:04:24.436Z,14.03
2022-11-07T08:05:51.678Z,15.82
2022-11-07T08:07:13.127Z,17.24
2022-11-07T08:08:38.080Z,18.01
2022-11-07T08:10:01.963Z,16.63
2022-11-07T08:12:47.324Z,17.39
2022-11-07T08:14:10.547Z,16.06
2022-11-07T08:16:53.170Z,13.43
2022-11-07T08:18:16.189Z,18.06
2022-11-07T08:19:37.454Z,18.73
2022-11-07T08:21:00.751Z,16.93
2022-11-07T08:22:22.481Z,15.82
2022-11-07T08:23:44.963Z,18.16
2022-11-07T08:25:07.266Z,18.28
2022-11-07T08:26:28.780Z,16.31
2022-11-07T08:27:52.493Z,17.75
2022-11-07T08:29:13.822Z,17.40
2022-11-07T08:30:36.039Z,12.23
2022-11-07T08:31:57.613Z,19.24
2022-11-07T08:33:19.684Z,17.71
2022-11-07T08:35:57.769Z,14.86
2022-11-07T08:37:22.698Z,20.03
2022-11-07T08:39:56.999Z,23.38
2022-11-07T08:41:22.642Z,21.46
2022-11-07T08:43:56.610Z,20.46
2022-11-07T08:46:48.495Z,25.76
2022-11-07T08:48:10.141Z,25.34
2022-11-07T08:49:31.547Z,17.43
2022-11-07T08:50:55.762Z,22.67
2022-11-07T08:52:18.564Z,17.85
2022-11-07T08:53:40.295Z,19.72
2022-11-07T08:55:02.882Z,20.54
2022-11-07T08:56:24.267Z,16.40
2022-11-07T08:57:45.922Z,17.62
2022-11-07T08:59:07.434Z,18.52
2022-11-07T09:00:31.006Z,17.99
2022-11-07T09:04:42.417Z,15.04
2022-11-07T09:06:04.213Z,17.47
2022-11-07T09:07:25.798Z,17.17
2022-11-07T09:08:47.192Z,19.86
2022-11-07T09:10:10.518Z,17.93
2022-11-07T09:11:31.884Z,17.79
2022-11-07T09:12:53.441Z,18.51
2022-11-07T09:14:15.146Z,17.19
2022-11-07T09:15:36.513Z,19.16
2022-11-07T09:16:58.234Z,18.06
2022-11-07T09:18:19.466Z,16.27
2022-11-07T09:19:40.802Z,16.86
2022-11-07T09:21:05.159Z,17.16
2022-11-07T09:22:26.227Z,15.91
2022-11-07T09:23:48.185Z,15.81
2022-11-07T09:27:07.654Z,14.08
2022-11-07T09:28:29.266Z,21.32
2022-11-07T09:29:52.090Z,17.77
2022-11-07T09:31:25.060Z,16.01
2022-11-07T09:32:47.733Z,23.73
2022-11-07T09:34:09.269Z,25.26
2022-11-07T09:35:30.588Z,19.52
2022-11-07T09:36:53.383Z,20.15
2022-11-07T09:39:28.523Z,22.91
2022-11-07T09:40:59.468Z,22.43
2022-11-07T09:42:37.029Z,16.03
2022-11-07T09:44:04.536Z,21.20
2022-11-07T09:45:25.362Z,17.02
2022-11-07T09:47:08.945Z,18.07
2022-11-07T09:48:35.419Z,21.76
2022-11-07T09:49:59.022Z,22.66
2022-11-07T09:51:37.620Z,22.93
2022-11-07T09:53:02.548Z,18.44
2022-11-07T09:54:26.953Z,25.45
2022-11-07T09:55:58.957Z,21.56
2022-11-07T09:57:20.616Z,23.24
2022-11-07T09:58:43.335Z,23.80
2022-11-07T10:00:07.446Z,22.33
2022-11-07T10:01:30.626Z,27.51
2022-11-07T10:04:24.858Z,19.23
2022-11-07T10:06:08.399Z,17.76
2022-11-07T10:07:34.574Z,18.33
2022-11-07T10:09:08.321Z,21.29
2022-11-07T10:10:45.552Z,16.28
2022-11-07T10:12:43.257Z,16.03
2022-11-07T10:14:19.318Z,15.86
2022-11-07T10:16:09.673Z,17.97
2022-11-07T10:18:06.130Z,17.89
2022-11-07T10:19:43.139Z,15.32
2022-11-07T10:25:47.729Z,15.89
2022-11-07T10:27:10.292Z,18.50
2022-11-07T10:28:31.513Z,19.06
2022-11-07T10:29:53.219Z,22.65
2022-11-07T10:31:14.895Z,21.23
2022-11-07T10:32:42.814Z,22.17
2022-11-07T10:34:20.906Z,17.44
2022-11-07T10:35:47.391Z,21.74
2022-11-07T10:37:09.029Z,23.36
2022-11-07T10:38:31.479Z,21.62
2022-11-07T10:39:52.743Z,21.91
2022-11-07T10:41:24.448Z,19.67
2022-11-07T10:42:48.782Z,17.61
2022-11-07T10:45:31.998Z,19.18
2022-11-07T10:46:54.872Z,21.54
2022-11-07T10:48:18.587Z,17.84
2022-11-07T10:49:40.314Z,22.47
2022-11-07T10:52:17.347Z,26.23
2022-11-07T10:53:43.588Z,17.55
2022-11-07T10:55:08.758Z,18.33
2022-11-07T10:56:30.755Z,20.94
2022-11-07T10:58:00.689Z,18.24
2022-11-07T10:59:28.095Z,18.91
2022-11-07T11:01:04.100Z,25.57
2022-11-07T11:02:46.357Z,28.34
2022-11-07T11:04:09.475Z,25.90
2022-11-07T11:05:34.588Z,21.57
2022-11-07T11:08:18.763Z,26.46
2022-11-07T11:09:53.987Z,27.42
2022-11-07T11:11:25.090Z,27.91
2022-11-07T11:12:46.874Z,30.19
2022-11-07T11:14:13.070Z,23.43
2022-11-07T11:15:42.679Z,27.46
2022-11-07T11:17:04.148Z,27.86
2022-11-07T11:18:25.591Z,27.13
2022-11-07T11:19:49.500Z,30.88
2022-11-07T11:21:10.568Z,39.58
2022-11-07T11:23:52.929Z,28.93
2022-11-07T11:25:18.224Z,28.39
2022-11-07T11:26:39.488Z,31.48
2022-11-07T11:28:07.163Z,30.56
2022-11-07T11:29:59.389Z,29.63
2022-11-07T11:32:55.807Z,27.43
2022-11-07T11:34:53.036Z,32.59
2022-11-07T11:37:41.903Z,29.93
2022-11-07T11:39:04.285Z,29.02
2022-11-07T11:40:25.345Z,22.60
2022-11-07T11:41:55.339Z,23.26
2022-11-07T11:43:21.760Z,22.67
2022-11-07T11:44:45.528Z,21.76
2022-11-07T11:46:23.029Z,23.81
2022-11-07T11:49:38.566Z,17.93
2022-11-07T11:52:42.707Z,20.91
2022-11-07T11:54:09.310Z,17.13
2022-11-07T11:55:34.669Z,23.59
2022-11-07T11:57:01.565Z,25.34
2022-11-07T12:00:20.330Z,19.99
2022-11-07T12:02:02.744Z,24.07
2022-11-07T12:05:01.206Z,25.02
2022-11-07T12:06:38.498Z,24.77
2022-11-07T12:08:24.269Z,24.77
2022-11-07T12:11:39.776Z,32.20
2022-11-07T12:14:57.391Z,27.82
2022-11-07T12:16:34.094Z,27.51
2022-11-07T12:19:24.804Z,26.89
2022-11-07T12:21:23.867Z,25.33
2022-11-07T12:24:33.382Z,39.84
2022-11-07T12:27:51.845Z,44.20
2022-11-07T12:29:33.825Z,34.71
2022-11-07T12:31:05.150Z,36.84
2022-11-07T12:34:28.657Z,38.23
2022-11-07T12:36:01.386Z,29.02
2022-11-07T12:37:54.845Z,26.42
2022-11-07T12:39:31.705Z,22.84
2022-11-07T12:41:17.696Z,21.66
2022-11-07T12:43:14.903Z,25.97
2022-11-07T12:44:43.417Z,21.14
2022-11-07T12:46:34.474Z,25.09
2022-11-07T12:48:13.295Z,19.82
2022-11-07T12:51:35.837Z,15.87
2022-11-07T12:55:57.608Z,26.42
2022-11-07T13:09:09.547Z,25.42
2022-11-07T13:12:09.235Z,25.97
2022-11-07T13:14:54.726Z,16.44
2022-11-07T13:16:28.007Z,28.91
2022-11-07T13:17:50.641Z,22.46
2022-11-07T13:19:21.926Z,21.52
2022-11-07T13:20:43.451Z,22.78
2022-11-07T13:22:17.274Z,19.20
2022-11-07T13:23:38.697Z,22.20
2022-11-07T13:25:16.290Z,19.54
2022-11-07T13:26:51.398Z,20.04
2022-11-07T13:28:04.707Z,22.24
2022-11-07T13:29:36.690Z,18.23
2022-11-07T13:31:01.223Z,19.79
2022-11-07T13:32:23.128Z,18.78
2022-11-07T13:33:44.406Z,18.63
2022-11-07T13:35:28.404Z,20.31
2022-11-07T13:38:15.421Z,20.72
2022-11-07T13:39:36.505Z,19.69
2022-11-07T13:40:59.819Z,24.85
2022-11-07T13:43:56.775Z,47.31
2022-11-07T13:45:35.000Z,32.75
2022-11-07T13:46:57.531Z,36.16
2022-11-07T13:49:46.272Z,22.91
2022-11-07T13:51:34.510Z,36.71
2022-11-07T13:53:01.467Z,39.11
2022-11-07T13:54:41.895Z,26.63
2022-11-07T13:56:07.063Z,24.29
2022-11-07T13:57:37.245Z,26.42
2022-11-07T13:58:58.960Z,27.05
2022-11-07T14:00:20.295Z,22.97
2022-11-07T14:01:45.941Z,22.05
2022-11-07T14:03:22.180Z,20.80
2022-11-07T14:05:10.068Z,22.71
2022-11-07T14:06:14.798Z,20.63
2022-11-07T14:07:43.337Z,20.40
2022-11-07T14:09:04.792Z,20.42
2022-11-07T14:10:32.054Z,26.59
2022-11-07T14:11:53.546Z,19.63
2022-11-07T14:13:24.545Z,22.01
2022-11-07T14:14:47.470Z,22.91
2022-11-07T14:16:22.252Z,17.94
2022-11-07T14:19:00.472Z,21.26
2022-11-07T14:20:22.002Z,20.66
2022-11-07T14:21:45.430Z,24.63
2022-11-07T14:23:11.592Z,20.58
2022-11-07T14:24:33.015Z,20.15
2022-11-07T14:26:02.796Z,20.76
2022-11-07T14:27:24.127Z,25.83
2022-11-07T14:28:47.002Z,24.82
2022-11-07T14:31:33.682Z,22.67
2022-11-07T14:32:57.193Z,19.63
2022-11-07T14:34:21.340Z,22.47
2022-11-07T14:35:44.663Z,20.63
2022-11-07T14:37:06.069Z,20.56
2022-11-07T14:38:27.795Z,21.98
2022-11-07T14:39:49.844Z,31.39
2022-11-07T14:41:11.088Z,57.21
2022-11-07T14:42:32.463Z,69.09
2022-11-07T14:43:53.578Z,183.70
2022-11-07T14:45:33.345Z,62.17
2022-11-07T14:46:42.360Z,35.41
2022-11-07T14:48:04.720Z,31.27
2022-11-07T14:49:28.779Z,27.48
2022-11-07T14:50:50.706Z,30.15
2022-11-07T14:52:18.079Z,40.44
2022-11-07T14:53:56.873Z,25.96
2022-11-07T14:55:35.214Z,28.23
2022-11-07T14:58:09.439Z,23.33
2022-11-07T14:59:30.757Z,24.64
2022-11-07T15:03:31.874Z,28.12
2022-11-07T15:04:57.177Z,26.91
2022-11-07T15:06:20.608Z,34.03
2022-11-07T15:07:46.359Z,38.13
2022-11-07T15:09:09.304Z,30.43
2022-11-07T15:10:34.473Z,34.28
2022-11-07T15:11:59.359Z,35.01
2022-11-07T15:13:24.966Z,27.25
2022-11-07T15:14:48.661Z,61.38
2022-11-07T15:16:20.258Z,33.24
2022-11-07T15:19:00.804Z,26.72
2022-11-07T15:20:33.661Z,33.22
2022-11-07T15:21:59.507Z,24.20
2022-11-07T15:23:24.634Z,27.42
2022-11-07T15:24:46.018Z,20.49
2022-11-07T15:26:10.443Z,26.07
2022-11-07T15:27:32.994Z,22.11
2022-11-07T15:28:56.023Z,23.02
2022-11-07T15:30:31.994Z,21.84
2022-11-07T15:31:52.992Z,23.88
2022-11-07T15:33:15.049Z,21.60
2022-11-07T15:35:00.881Z,22.16
2022-11-07T15:36:04.334Z,20.63
2022-11-07T15:37:25.687Z,25.53
2022-11-07T15:38:48.208Z,22.66
2022-11-07T15:40:13.901Z,23.34
2022-11-07T15:41:35.146Z,23.52
2022-11-07T15:42:56.726Z,24.09
2022-11-07T15:44:18.109Z,21.87
2022-11-07T15:45:39.576Z,24.14
2022-11-07T15:47:00.607Z,23.85
2022-11-07T15:49:50.330Z,24.43
2022-11-07T15:51:17.487Z,22.37
2022-11-07T15:52:48.957Z,21.32
2022-11-07T15:59:38.429Z,23.26
2022-11-07T16:01:02.548Z,21.63
2022-11-07T16:05:53.909Z,23.61
2022-11-07T16:07:19.616Z,26.01
2022-11-07T16:08:52.404Z,23.69
2022-11-07T16:12:07.241Z,25.14
2022-11-07T16:20:44.286Z,32.13
2022-11-07T16:23:57.774Z,26.24
2022-11-07T16:25:22.749Z,27.40
2022-11-07T16:28:32.703Z,24.93
2022-11-07T16:29:57.247Z,23.64
2022-11-07T16:31:33.135Z,25.64
2022-11-07T16:45:28.933Z,22.67
2022-11-07T16:48:33.266Z,19.36
2022-11-07T16:49:56.243Z,18.79
2022-11-07T16:51:20.666Z,20.48
2022-11-07T16:52:43.482Z,21.78
2022-11-07T16:54:09.311Z,20.42
2022-11-07T16:58:36.857Z,23.54
2022-11-07T16:59:59.584Z,28.14
2022-11-07T17:01:21.243Z,18.94
2022-11-07T17:02:42.836Z,21.47
2022-11-07T17:04:04.188Z,19.75
2022-11-07T17:05:25.504Z,19.96
2022-11-07T17:06:47.048Z,18.07
2022-11-07T17:08:18.906Z,24.91
2022-11-07T17:09:40.948Z,25.56
2022-11-07T17:11:03.041Z,25.07
2022-11-07T17:12:24.041Z,22.72
2022-11-07T17:13:45.858Z,30.90
2022-11-07T17:15:08.892Z,25.55
2022-11-07T17:16:30.762Z,22.77
2022-11-07T17:17:56.460Z,21.43
2022-11-07T17:19:18.677Z,20.14
2022-11-07T17:20:50.858Z,22.90
2022-11-07T17:22:04.218Z,20.32
2022-11-07T17:23:29.911Z,18.48
2022-11-07T17:24:48.470Z,17.38
2022-11-07T17:26:10.268Z,16.46
2022-11-07T17:27:33.036Z,18.99
2022-11-07T17:28:54.827Z,17.28
2022-11-07T17:30:18.978Z,18.82
2022-11-07T17:31:40.981Z,18.22
2022-11-07T17:33:02.925Z,16.43
2022-11-07T17:34:24.035Z,21.44
2022-11-07T17:35:45.950Z,19.61
2022-11-07T17:37:12.795Z,21.34
2022-11-07T17:38:33.933Z,19.22
2022-11-07T17:39:55.513Z,21.84
2022-11-07T17:41:16.909Z,19.76
2022-11-07T17:42:38.504Z,19.97
2022-11-07T17:44:00.213Z,21.59
2022-11-07T17:45:22.608Z,21.21
2022-11-07T17:46:48.017Z,19.92
2022-11-07T17:48:09.910Z,18.95
2022-11-07T17:49:31.277Z,18.19
2022-11-07T17:50:52.590Z,47.95
2022-11-07T17:52:13.663Z,25.12
2022-11-07T17:53:35.226Z,20.41
2022-11-07T17:54:56.444Z,31.15
2022-11-07T17:57:36.159Z,29.87
2022-11-07T17:59:03.318Z,36.19
2022-11-07T18:00:24.928Z,28.14
2022-11-07T18:01:46.655Z,25.03
2022-11-07T18:03:08.354Z,22.59
2022-11-07T18:04:29.790Z,22.55
2022-11-07T18:05:51.070Z,21.62
2022-11-07T18:07:12.574Z,22.45
2022-11-07T18:08:51.805Z,21.21
2022-11-07T18:09:59.805Z,21.78
2022-11-07T18:11:22.006Z,19.73
2022-11-07T18:12:45.100Z,23.76
2022-11-07T18:14:06.771Z,19.48
2022-11-07T18:15:28.830Z,21.69
2022-11-07T18:16:50.630Z,22.69
2022-11-07T18:18:11.711Z,23.31
2022-11-07T18:19:33.298Z,23.47
2022-11-07T18:20:54.653Z,26.01
2022-11-07T18:22:17.773Z,23.41
2022-11-07T18:23:39.829Z,23.01
2022-11-07T18:25:01.068Z,16.29
2022-11-07T18:26:29.451Z,21.74
2022-11-07T18:27:50.929Z,22.98
2022-11-07T18:29:13.566Z,25.27
2022-11-07T18:30:34.592Z,26.32
2022-11-07T18:31:55.890Z,27.59
2022-11-07T18:33:17.556Z,23.42
2022-11-07T18:34:39.348Z,28.40
2022-11-07T18:36:01.700Z,22.76
2022-11-07T18:37:23.401Z,22.74
2022-11-07T18:38:44.845Z,22.58
2022-11-07T18:40:07.484Z,19.40
2022-11-07T18:41:28.777Z,21.36
2022-11-07T18:42:50.248Z,23.00
2022-11-07T18:44:11.857Z,21.82
2022-11-07T18:45:32.814Z,20.41
2022-11-07T18:46:54.496Z,22.41
2022-11-07T18:48:15.822Z,21.51
2022-11-07T18:49:37.467Z,20.40
2022-11-07T18:50:59.002Z,19.99
2022-11-07T18:52:20.244Z,19.92
2022-11-07T18:53:41.336Z,20.37
2022-11-07T18:55:02.837Z,20.75
2022-11-07T18:56:25.916Z,21.41
2022-11-07T18:57:47.504Z,21.89
2022-11-07T18:59:09.647Z,22.54
2022-11-07T19:00:31.136Z,21.38
2022-11-07T19:01:52.404Z,20.76
2022-11-07T19:03:13.816Z,19.83
2022-11-07T19:04:34.972Z,21.78
2022-11-07T19:05:56.652Z,19.50
2022-11-07T19:07:17.951Z,21.03
2022-11-07T19:08:39.725Z,20.16
2022-11-07T19:10:00.864Z,19.84
2022-11-07T19:11:24.749Z,22.66
2022-11-07T19:12:46.173Z,24.51
2022-11-07T19:14:08.204Z,24.27
2022-11-07T19:15:29.105Z,18.28
2022-11-07T19:16:50.721Z,20.55
2022-11-07T19:18:11.693Z,19.73
2022-11-07T19:19:32.824Z,20.79
2022-11-07T19:20:54.091Z,24.50
2022-11-07T19:22:15.431Z,21.04
2022-11-07T19:23:37.025Z,23.03
2022-11-07T19:24:58.367Z,22.71
2022-11-07T19:26:19.619Z,23.88
2022-11-07T19:27:41.133Z,24.51
2022-11-07T19:29:02.233Z,22.32
2022-11-07T19:30:23.627Z,22.78
2022-11-07T19:31:44.818Z,24.27
2022-11-07T19:33:06.418Z,21.13
2022-11-07T19:34:27.338Z,21.52
2022-11-07T19:35:51.821Z,22.14
2022-11-07T19:38:24.326Z,23.79
2022-11-07T19:39:45.925Z,22.08
2022-11-07T19:41:07.797Z,22.28
2022-11-07T19:42:29.197Z,22.33
2022-11-07T19:43:50.375Z,24.08
2022-11-07T19:45:12.433Z,22.06
2022-11-07T19:46:34.114Z,23.29
2022-11-07T19:47:55.307Z,23.93
2022-11-07T19:49:16.675Z,25.26
2022-11-07T19:50:38.167Z,22.18
2022-11-07T19:51:59.422Z,24.04
2022-11-07T19:53:20.552Z,21.84
2022-11-07T19:54:41.983Z,21.09
2022-11-07T19:56:07.398Z,25.16
2022-11-07T19:57:28.415Z,22.06
2022-11-07T19:58:50.476Z,24.78
2022-11-07T20:00:14.004Z,21.79
2022-11-07T20:01:35.394Z,21.87
2022-11-07T20:02:56.443Z,23.04
2022-11-07T20:04:17.853Z,23.37
2022-11-07T20:05:39.311Z,22.77
2022-11-07T20:07:00.611Z,21.64
2022-11-07T20:08:21.807Z,21.48
2022-11-07T20:09:43.242Z,22.62
2022-11-07T20:11:04.780Z,23.32
2022-11-07T20:12:26.278Z,24.06